sensor_id;sensor_type;location;lat;lon;timestamp;pressure;altitude;pressure_sealevel;temperature
75822;BMP180;64454;51.984;9.838;2023-03-23T00:02:23;99130.00;;;13.40
75822;BMP180;64454;51.984;9.838;2023-03-23T00:04:50;99142.00;;;13.40
75822;BMP180;64454;51.984;9.838;2023-03-23T00:07:17;99129.00;;;13.40
75822;BMP180;64454;51.984;9.838;2023-03-23T00:09:48;99123.00;;;13.40
75822;BMP180;64454;51.984;9.838;2023-03-23T00:12:20;99118.00;;;13.60
75822;BMP180;64454;51.984;9.838;2023-03-23T00:14:47;99114.00;;;13.40
75822;BMP180;64454;51.984;9.838;2023-03-23T00:17:14;99124.00;;;13.40
75822;BMP180;64454;51.984;9.838;2023-03-23T00:19:41;99111.00;;;13.60
75822;BMP180;64454;51.984;9.838;2023-03-23T00:22:14;99115.00;;;13.40
75822;BMP180;64454;51.984;9.838;2023-03-23T00:24:43;99108.00;;;13.50
75822;BMP180;64454;51.984;9.838;2023-03-23T00:27:11;99109.00;;;13.40
75822;BMP180;64454;51.984;9.838;2023-03-23T00:29:41;99103.00;;;13.40
75822;BMP180;64454;51.984;9.838;2023-03-23T00:32:08;99107.00;;;13.30
75822;BMP180;64454;51.984;9.838;2023-03-23T00:34:38;99107.00;;;13.10
75822;BMP180;64454;51.984;9.838;2023-03-23T00:37:07;99108.00;;;13.30
75822;BMP180;64454;51.984;9.838;2023-03-23T00:39:38;99111.00;;;13.30
75822;BMP180;64454;51.984;9.838;2023-03-23T00:42:14;99107.00;;;13.30
75822;BMP180;64454;51.984;9.838;2023-03-23T00:44:42;99115.00;;;13.30
75822;BMP180;64454;51.984;9.838;2023-03-23T00:47:11;99111.00;;;13.30
75822;BMP180;64454;51.984;9.838;2023-03-23T00:49:38;99108.00;;;13.00
75822;BMP180;64454;51.984;9.838;2023-03-23T00:52:07;99112.00;;;12.80
75822;BMP180;64454;51.984;9.838;2023-03-23T00:54:34;99095.00;;;13.00
75822;BMP180;64454;51.984;9.838;2023-03-23T00:57:04;99103.00;;;12.90
75822;BMP180;64454;51.984;9.838;2023-03-23T00:59:32;99101.00;;;12.80
75822;BMP180;64454;51.984;9.838;2023-03-23T01:01:59;99087.00;;;12.80
75822;BMP180;64454;51.984;9.838;2023-03-23T01:04:26;99097.00;;;12.80
75822;BMP180;64454;51.984;9.838;2023-03-23T01:06:54;99088.00;;;12.80
75822;BMP180;64454;51.984;9.838;2023-03-23T01:09:22;99079.00;;;12.80
75822;BMP180;64454;51.984;9.838;2023-03-23T01:11:51;99082.00;;;12.70
75822;BMP180;64454;51.984;9.838;2023-03-23T01:14:19;99095.00;;;12.60
75822;BMP180;64454;51.984;9.838;2023-03-23T01:16:48;99077.00;;;12.60
75822;BMP180;64454;51.984;9.838;2023-03-23T01:19:15;99085.00;;;12.70
75822;BMP180;64454;51.984;9.838;2023-03-23T01:21:42;99063.00;;;12.80
75822;BMP180;64454;51.984;9.838;2023-03-23T01:24:09;99063.00;;;12.70
75822;BMP180;64454;51.984;9.838;2023-03-23T01:26:36;99069.00;;;12.50
75822;BMP180;64454;51.984;9.838;2023-03-23T01:29:04;99070.00;;;12.70
75822;BMP180;64454;51.984;9.838;2023-03-23T01:31:31;99072.00;;;12.50
75822;BMP180;64454;51.984;9.838;2023-03-23T01:33:59;99065.00;;;12.60
75822;BMP180;64454;51.984;9.838;2023-03-23T01:36:29;99062.00;;;12.60
75822;BMP180;64454;51.984;9.838;2023-03-23T01:38:59;99053.00;;;12.40
75822;BMP180;64454;51.984;9.838;2023-03-23T01:41:28;99049.00;;;12.60
75822;BMP180;64454;51.984;9.838;2023-03-23T01:43:58;99042.00;;;12.60
75822;BMP180;64454;51.984;9.838;2023-03-23T01:46:28;99051.00;;;12.50
75822;BMP180;64454;51.984;9.838;2023-03-23T01:49:00;99060.00;;;12.50
75822;BMP180;64454;51.984;9.838;2023-03-23T01:51:34;99051.00;;;12.40
75822;BMP180;64454;51.984;9.838;2023-03-23T01:54:07;99052.00;;;12.40
75822;BMP180;64454;51.984;9.838;2023-03-23T01:56:40;99056.00;;;12.40
75822;BMP180;64454;51.984;9.838;2023-03-23T01:59:12;99060.00;;;12.30
75822;BMP180;64454;51.984;9.838;2023-03-23T02:01:41;99054.00;;;12.40
75822;BMP180;64454;51.984;9.838;2023-03-23T02:04:15;99049.00;;;12.40
75822;BMP180;64454;51.984;9.838;2023-03-23T02:06:44;99057.00;;;12.30
75822;BMP180;64454;51.984;9.838;2023-03-23T02:09:13;99053.00;;;12.30
75822;BMP180;64454;51.984;9.838;2023-03-23T02:11:43;99044.00;;;12.20
75822;BMP180;64454;51.984;9.838;2023-03-23T02:14:13;99055.00;;;12.20
75822;BMP180;64454;51.984;9.838;2023-03-23T02:16:48;99057.00;;;12.40
75822;BMP180;64454;51.984;9.838;2023-03-23T02:19:41;99037.00;;;12.30
75822;BMP180;64454;51.984;9.838;2023-03-23T02:22:49;99035.00;;;12.30
75822;BMP180;64454;51.984;9.838;2023-03-23T02:25:51;99024.00;;;12.30
75822;BMP180;64454;51.984;9.838;2023-03-23T02:29:01;99037.00;;;12.30
75822;BMP180;64454;51.984;9.838;2023-03-23T02:31:47;99033.00;;;12.30
75822;BMP180;64454;51.984;9.838;2023-03-23T02:34:25;99041.00;;;12.30
75822;BMP180;64454;51.984;9.838;2023-03-23T02:37:00;99042.00;;;12.10
75822;BMP180;64454;51.984;9.838;2023-03-23T02:39:33;99047.00;;;12.30
75822;BMP180;64454;51.984;9.838;2023-03-23T02:42:05;99057.00;;;12.20
75822;BMP180;64454;51.984;9.838;2023-03-23T02:44:36;99049.00;;;11.80
75822;BMP180;64454;51.984;9.838;2023-03-23T02:47:08;99058.00;;;11.60
75822;BMP180;64454;51.984;9.838;2023-03-23T02:49:41;99049.00;;;11.60
75822;BMP180;64454;51.984;9.838;2023-03-23T02:52:12;99038.00;;;11.60
75822;BMP180;64454;51.984;9.838;2023-03-23T02:54:42;99031.00;;;11.50
75822;BMP180;64454;51.984;9.838;2023-03-23T02:57:10;99035.00;;;11.70
75822;BMP180;64454;51.984;9.838;2023-03-23T02:59:39;99033.00;;;11.60
75822;BMP180;64454;51.984;9.838;2023-03-23T03:02:09;99030.00;;;11.70
75822;BMP180;64454;51.984;9.838;2023-03-23T03:04:46;99020.00;;;11.70
75822;BMP180;64454;51.984;9.838;2023-03-23T03:07:30;99015.00;;;11.70
75822;BMP180;64454;51.984;9.838;2023-03-23T03:10:05;99019.00;;;11.60
75822;BMP180;64454;51.984;9.838;2023-03-23T03:12:42;99024.00;;;11.70
75822;BMP180;64454;51.984;9.838;2023-03-23T03:15:23;99027.00;;;11.60
75822;BMP180;64454;51.984;9.838;2023-03-23T03:18:01;99029.00;;;11.60
75822;BMP180;64454;51.984;9.838;2023-03-23T03:20:33;99018.00;;;11.60
75822;BMP180;64454;51.984;9.838;2023-03-23T03:23:03;99041.00;;;11.60
75822;BMP180;64454;51.984;9.838;2023-03-23T03:25:31;99026.00;;;11.70
75822;BMP180;64454;51.984;9.838;2023-03-23T03:27:58;99028.00;;;11.60
75822;BMP180;64454;51.984;9.838;2023-03-23T03:30:30;99024.00;;;11.70
75822;BMP180;64454;51.984;9.838;2023-03-23T03:33:00;99025.00;;;11.60
75822;BMP180;64454;51.984;9.838;2023-03-23T03:35:30;99015.00;;;11.50
75822;BMP180;64454;51.984;9.838;2023-03-23T03:38:06;99022.00;;;11.50
75822;BMP180;64454;51.984;9.838;2023-03-23T03:40:34;99027.00;;;11.60
75822;BMP180;64454;51.984;9.838;2023-03-23T03:43:02;99042.00;;;11.30
75822;BMP180;64454;51.984;9.838;2023-03-23T03:45:29;99032.00;;;11.40
75822;BMP180;64454;51.984;9.838;2023-03-23T03:47:56;99019.00;;;11.40
75822;BMP180;64454;51.984;9.838;2023-03-23T03:50:23;99030.00;;;11.60
75822;BMP180;64454;51.984;9.838;2023-03-23T03:52:51;99025.00;;;11.30
75822;BMP180;64454;51.984;9.838;2023-03-23T03:55:18;99032.00;;;11.50
75822;BMP180;64454;51.984;9.838;2023-03-23T03:57:45;99028.00;;;11.60
75822;BMP180;64454;51.984;9.838;2023-03-23T04:00:13;99018.00;;;11.50
75822;BMP180;64454;51.984;9.838;2023-03-23T04:02:43;99013.00;;;11.60
75822;BMP180;64454;51.984;9.838;2023-03-23T04:05:13;99014.00;;;11.50
75822;BMP180;64454;51.984;9.838;2023-03-23T04:07:40;98992.00;;;11.40
75822;BMP180;64454;51.984;9.838;2023-03-23T04:10:10;98994.00;;;11.20
75822;BMP180;64454;51.984;9.838;2023-03-23T04:12:38;98982.00;;;11.20
75822;BMP180;64454;51.984;9.838;2023-03-23T04:15:08;98991.00;;;11.20
75822;BMP180;64454;51.984;9.838;2023-03-23T04:17:35;98978.00;;;11.30
75822;BMP180;64454;51.984;9.838;2023-03-23T04:20:03;98987.00;;;11.10
75822;BMP180;64454;51.984;9.838;2023-03-23T04:22:32;98995.00;;;11.20
75822;BMP180;64454;51.984;9.838;2023-03-23T04:25:01;98997.00;;;11.20
75822;BMP180;64454;51.984;9.838;2023-03-23T04:27:33;99006.00;;;11.10
75822;BMP180;64454;51.984;9.838;2023-03-23T04:29:59;98985.00;;;11.20
75822;BMP180;64454;51.984;9.838;2023-03-23T04:32:27;98996.00;;;11.10
75822;BMP180;64454;51.984;9.838;2023-03-23T04:34:55;98995.00;;;11.20
75822;BMP180;64454;51.984;9.838;2023-03-23T04:37:22;99006.00;;;11.30
75822;BMP180;64454;51.984;9.838;2023-03-23T04:39:55;98999.00;;;11.20
75822;BMP180;64454;51.984;9.838;2023-03-23T04:42:28;98991.00;;;11.20
75822;BMP180;64454;51.984;9.838;2023-03-23T04:44:57;98989.00;;;11.00
75822;BMP180;64454;51.984;9.838;2023-03-23T04:47:26;98983.00;;;11.00
75822;BMP180;64454;51.984;9.838;2023-03-23T04:49:55;98962.00;;;11.00
75822;BMP180;64454;51.984;9.838;2023-03-23T04:52:23;98961.00;;;11.00
75822;BMP180;64454;51.984;9.838;2023-03-23T04:54:50;98925.00;;;10.90
75822;BMP180;64454;51.984;9.838;2023-03-23T04:57:17;98963.00;;;10.90
75822;BMP180;64454;51.984;9.838;2023-03-23T04:59:44;98965.00;;;11.00
75822;BMP180;64454;51.984;9.838;2023-03-23T05:02:12;98933.00;;;11.10
75822;BMP180;64454;51.984;9.838;2023-03-23T05:04:40;98956.00;;;11.00
75822;BMP180;64454;51.984;9.838;2023-03-23T05:07:08;98935.00;;;11.10
75822;BMP180;64454;51.984;9.838;2023-03-23T05:09:34;98939.00;;;11.10
75822;BMP180;64454;51.984;9.838;2023-03-23T05:12:06;98943.00;;;11.10
75822;BMP180;64454;51.984;9.838;2023-03-23T05:14:33;98931.00;;;11.00
75822;BMP180;64454;51.984;9.838;2023-03-23T05:17:00;98939.00;;;10.90
75822;BMP180;64454;51.984;9.838;2023-03-23T05:19:29;98946.00;;;10.90
75822;BMP180;64454;51.984;9.838;2023-03-23T05:21:57;98970.00;;;11.00
75822;BMP180;64454;51.984;9.838;2023-03-23T05:24:29;98972.00;;;11.00
75822;BMP180;64454;51.984;9.838;2023-03-23T05:26:58;98959.00;;;11.10
75822;BMP180;64454;51.984;9.838;2023-03-23T05:29:26;98972.00;;;11.00
75822;BMP180;64454;51.984;9.838;2023-03-23T05:31:55;98972.00;;;10.80
75822;BMP180;64454;51.984;9.838;2023-03-23T05:34:25;98975.00;;;11.00
75822;BMP180;64454;51.984;9.838;2023-03-23T05:36:53;98981.00;;;10.80
75822;BMP180;64454;51.984;9.838;2023-03-23T05:39:21;98969.00;;;10.80
75822;BMP180;64454;51.984;9.838;2023-03-23T05:41:48;98974.00;;;10.90
75822;BMP180;64454;51.984;9.838;2023-03-23T05:44:15;98978.00;;;10.90
75822;BMP180;64454;51.984;9.838;2023-03-23T05:46:42;98990.00;;;11.20
75822;BMP180;64454;51.984;9.838;2023-03-23T05:49:08;98977.00;;;11.20
75822;BMP180;64454;51.984;9.838;2023-03-23T05:51:35;98991.00;;;11.10
75822;BMP180;64454;51.984;9.838;2023-03-23T05:54:04;98999.00;;;11.20
75822;BMP180;64454;51.984;9.838;2023-03-23T05:56:31;98985.00;;;11.20
75822;BMP180;64454;51.984;9.838;2023-03-23T05:58:57;98994.00;;;11.00
75822;BMP180;64454;51.984;9.838;2023-03-23T06:01:25;98973.00;;;11.00
75822;BMP180;64454;51.984;9.838;2023-03-23T06:03:52;98976.00;;;11.00
75822;BMP180;64454;51.984;9.838;2023-03-23T06:06:19;98973.00;;;10.90
75822;BMP180;64454;51.984;9.838;2023-03-23T06:08:46;98982.00;;;11.20
75822;BMP180;64454;51.984;9.838;2023-03-23T06:11:17;98998.00;;;11.10
75822;BMP180;64454;51.984;9.838;2023-03-23T06:13:44;98993.00;;;11.20
75822;BMP180;64454;51.984;9.838;2023-03-23T06:16:11;98982.00;;;11.10
75822;BMP180;64454;51.984;9.838;2023-03-23T06:18:38;98980.00;;;11.20
75822;BMP180;64454;51.984;9.838;2023-03-23T06:21:06;98971.00;;;11.20
75822;BMP180;64454;51.984;9.838;2023-03-23T06:23:33;98964.00;;;11.30
75822;BMP180;64454;51.984;9.838;2023-03-23T06:26:03;98969.00;;;11.20
75822;BMP180;64454;51.984;9.838;2023-03-23T06:28:33;98965.00;;;11.10
75822;BMP180;64454;51.984;9.838;2023-03-23T06:31:00;98981.00;;;11.20
75822;BMP180;64454;51.984;9.838;2023-03-23T06:33:30;98969.00;;;11.40
75822;BMP180;64454;51.984;9.838;2023-03-23T06:35:57;98991.00;;;11.50
75822;BMP180;64454;51.984;9.838;2023-03-23T06:38:25;98976.00;;;11.20
75822;BMP180;64454;51.984;9.838;2023-03-23T06:40:53;98975.00;;;11.30
75822;BMP180;64454;51.984;9.838;2023-03-23T06:43:20;98969.00;;;11.30
75822;BMP180;64454;51.984;9.838;2023-03-23T06:45:48;98981.00;;;11.40
75822;BMP180;64454;51.984;9.838;2023-03-23T06:48:15;98972.00;;;11.40
75822;BMP180;64454;51.984;9.838;2023-03-23T06:50:43;98978.00;;;11.70
75822;BMP180;64454;51.984;9.838;2023-03-23T06:53:11;98973.00;;;11.50
75822;BMP180;64454;51.984;9.838;2023-03-23T06:55:38;98982.00;;;11.50
75822;BMP180;64454;51.984;9.838;2023-03-23T06:58:06;98998.00;;;11.80
75822;BMP180;64454;51.984;9.838;2023-03-23T07:00:33;98988.00;;;11.60
75822;BMP180;64454;51.984;9.838;2023-03-23T07:03:01;98984.00;;;11.90
75822;BMP180;64454;51.984;9.838;2023-03-23T07:05:29;98991.00;;;12.00
75822;BMP180;64454;51.984;9.838;2023-03-23T07:07:56;98984.00;;;11.80
75822;BMP180;64454;51.984;9.838;2023-03-23T07:10:22;98988.00;;;12.10
75822;BMP180;64454;51.984;9.838;2023-03-23T07:12:50;99013.00;;;12.00
75822;BMP180;64454;51.984;9.838;2023-03-23T07:15:17;99007.00;;;12.00
75822;BMP180;64454;51.984;9.838;2023-03-23T07:17:44;99012.00;;;12.00
75822;BMP180;64454;51.984;9.838;2023-03-23T07:20:13;99003.00;;;12.00
75822;BMP180;64454;51.984;9.838;2023-03-23T07:22:40;99016.00;;;12.00
75822;BMP180;64454;51.984;9.838;2023-03-23T07:25:08;99013.00;;;12.00
75822;BMP180;64454;51.984;9.838;2023-03-23T07:27:35;99015.00;;;11.90
75822;BMP180;64454;51.984;9.838;2023-03-23T07:30:04;99014.00;;;11.90
75822;BMP180;64454;51.984;9.838;2023-03-23T07:32:31;99007.00;;;12.00
75822;BMP180;64454;51.984;9.838;2023-03-23T07:34:58;99014.00;;;12.10
75822;BMP180;64454;51.984;9.838;2023-03-23T07:37:26;99022.00;;;12.10
75822;BMP180;64454;51.984;9.838;2023-03-23T07:39:53;99013.00;;;12.20
75822;BMP180;64454;51.984;9.838;2023-03-23T07:42:21;99033.00;;;12.40
75822;BMP180;64454;51.984;9.838;2023-03-23T07:44:47;99016.00;;;12.80
75822;BMP180;64454;51.984;9.838;2023-03-23T07:47:14;99014.00;;;12.70
75822;BMP180;64454;51.984;9.838;2023-03-23T07:49:43;99020.00;;;12.90
75822;BMP180;64454;51.984;9.838;2023-03-23T07:52:10;99010.00;;;12.90
75822;BMP180;64454;51.984;9.838;2023-03-23T07:54:40;99018.00;;;12.90
75822;BMP180;64454;51.984;9.838;2023-03-23T07:57:07;99008.00;;;13.30
75822;BMP180;64454;51.984;9.838;2023-03-23T07:59:33;99009.00;;;13.20
75822;BMP180;64454;51.984;9.838;2023-03-23T08:02:00;99021.00;;;13.50
75822;BMP180;64454;51.984;9.838;2023-03-23T08:04:27;99023.00;;;13.70
75822;BMP180;64454;51.984;9.838;2023-03-23T08:06:54;98998.00;;;13.60
75822;BMP180;64454;51.984;9.838;2023-03-23T08:09:21;99008.00;;;13.50
75822;BMP180;64454;51.984;9.838;2023-03-23T08:11:49;99013.00;;;13.70
75822;BMP180;64454;51.984;9.838;2023-03-23T08:14:17;99025.00;;;13.80
75822;BMP180;64454;51.984;9.838;2023-03-23T08:16:44;99022.00;;;13.90
75822;BMP180;64454;51.984;9.838;2023-03-23T08:19:11;99021.00;;;13.80
75822;BMP180;64454;51.984;9.838;2023-03-23T08:21:38;99030.00;;;13.80
75822;BMP180;64454;51.984;9.838;2023-03-23T08:24:06;99032.00;;;13.90
75822;BMP180;64454;51.984;9.838;2023-03-23T08:26:32;99033.00;;;13.90
75822;BMP180;64454;51.984;9.838;2023-03-23T08:29:00;99039.00;;;13.40
75822;BMP180;64454;51.984;9.838;2023-03-23T08:31:28;99026.00;;;13.20
75822;BMP180;64454;51.984;9.838;2023-03-23T08:33:55;99037.00;;;13.30
75822;BMP180;64454;51.984;9.838;2023-03-23T08:36:22;99029.00;;;13.10
75822;BMP180;64454;51.984;9.838;2023-03-23T08:38:49;99034.00;;;13.40
75822;BMP180;64454;51.984;9.838;2023-03-23T08:41:17;99040.00;;;13.40
75822;BMP180;64454;51.984;9.838;2023-03-23T08:43:44;99032.00;;;13.00
75822;BMP180;64454;51.984;9.838;2023-03-23T08:46:13;99032.00;;;13.10
75822;BMP180;64454;51.984;9.838;2023-03-23T08:48:40;99022.00;;;13.20
75822;BMP180;64454;51.984;9.838;2023-03-23T08:51:09;99023.00;;;13.30
75822;BMP180;64454;51.984;9.838;2023-03-23T08:53:36;99027.00;;;13.50
75822;BMP180;64454;51.984;9.838;2023-03-23T08:56:04;99032.00;;;13.50
75822;BMP180;64454;51.984;9.838;2023-03-23T08:58:32;99030.00;;;13.80
75822;BMP180;64454;51.984;9.838;2023-03-23T09:00:59;99033.00;;;13.80
75822;BMP180;64454;51.984;9.838;2023-03-23T09:03:28;99029.00;;;13.90
75822;BMP180;64454;51.984;9.838;2023-03-23T09:05:59;99026.00;;;13.90
75822;BMP180;64454;51.984;9.838;2023-03-23T09:08:27;99021.00;;;14.00
75822;BMP180;64454;51.984;9.838;2023-03-23T09:10:55;99028.00;;;13.60
75822;BMP180;64454;51.984;9.838;2023-03-23T09:13:22;99017.00;;;13.80
75822;BMP180;64454;51.984;9.838;2023-03-23T09:15:49;99011.00;;;13.80
75822;BMP180;64454;51.984;9.838;2023-03-23T09:18:16;99032.00;;;13.80
75822;BMP180;64454;51.984;9.838;2023-03-23T09:20:45;99014.00;;;13.70
75822;BMP180;64454;51.984;9.838;2023-03-23T09:23:12;99009.00;;;13.60
75822;BMP180;64454;51.984;9.838;2023-03-23T09:25:40;99015.00;;;13.90
75822;BMP180;64454;51.984;9.838;2023-03-23T09:28:07;99022.00;;;14.00
75822;BMP180;64454;51.984;9.838;2023-03-23T09:30:36;99018.00;;;13.90
75822;BMP180;64454;51.984;9.838;2023-03-23T09:33:05;99017.00;;;13.60
75822;BMP180;64454;51.984;9.838;2023-03-23T09:35:32;99034.00;;;13.80
75822;BMP180;64454;51.984;9.838;2023-03-23T09:38:03;99032.00;;;13.90
75822;BMP180;64454;51.984;9.838;2023-03-23T09:40:37;99040.00;;;14.10
75822;BMP180;64454;51.984;9.838;2023-03-23T09:43:41;99032.00;;;13.90
75822;BMP180;64454;51.984;9.838;2023-03-23T09:46:41;99038.00;;;14.00
75822;BMP180;64454;51.984;9.838;2023-03-23T09:49:15;99042.00;;;14.00
75822;BMP180;64454;51.984;9.838;2023-03-23T09:51:48;99040.00;;;14.10
75822;BMP180;64454;51.984;9.838;2023-03-23T09:54:22;99044.00;;;14.20
75822;BMP180;64454;51.984;9.838;2023-03-23T09:56:50;99048.00;;;14.40
75822;BMP180;64454;51.984;9.838;2023-03-23T09:59:26;99060.00;;;14.50
75822;BMP180;64454;51.984;9.838;2023-03-23T10:01:59;99056.00;;;14.40
75822;BMP180;64454;51.984;9.838;2023-03-23T10:04:35;99049.00;;;14.40
75822;BMP180;64454;51.984;9.838;2023-03-23T10:07:11;99048.00;;;14.70
75822;BMP180;64454;51.984;9.838;2023-03-23T10:09:42;99058.00;;;14.80
75822;BMP180;64454;51.984;9.838;2023-03-23T10:12:27;99055.00;;;14.80
75822;BMP180;64454;51.984;9.838;2023-03-23T10:15:09;99050.00;;;15.00
75822;BMP180;64454;51.984;9.838;2023-03-23T10:17:46;99071.00;;;15.50
75822;BMP180;64454;51.984;9.838;2023-03-23T10:20:27;99068.00;;;15.60
75822;BMP180;64454;51.984;9.838;2023-03-23T10:23:05;99063.00;;;15.90
75822;BMP180;64454;51.984;9.838;2023-03-23T10:25:37;99061.00;;;15.90
75822;BMP180;64454;51.984;9.838;2023-03-23T10:28:12;99068.00;;;15.90
75822;BMP180;64454;51.984;9.838;2023-03-23T10:30:42;99059.00;;;16.20
75822;BMP180;64454;51.984;9.838;2023-03-23T10:33:18;99067.00;;;16.20
75822;BMP180;64454;51.984;9.838;2023-03-23T10:35:53;99068.00;;;16.40
75822;BMP180;64454;51.984;9.838;2023-03-23T10:38:26;99104.00;;;16.00
75822;BMP180;64454;51.984;9.838;2023-03-23T10:41:03;99076.00;;;15.80
75822;BMP180;64454;51.984;9.838;2023-03-23T10:43:32;99091.00;;;15.80
75822;BMP180;64454;51.984;9.838;2023-03-23T10:46:14;99084.00;;;15.00
75822;BMP180;64454;51.984;9.838;2023-03-23T10:48:43;99094.00;;;15.10
75822;BMP180;64454;51.984;9.838;2023-03-23T10:51:17;99092.00;;;14.70
75822;BMP180;64454;51.984;9.838;2023-03-23T10:53:51;99080.00;;;14.70
75822;BMP180;64454;51.984;9.838;2023-03-23T10:56:25;99112.00;;;14.60
75822;BMP180;64454;51.984;9.838;2023-03-23T10:58:53;99089.00;;;14.40
75822;BMP180;64454;51.984;9.838;2023-03-23T11:01:31;99072.00;;;14.70
75822;BMP180;64454;51.984;9.838;2023-03-23T11:03:59;99061.00;;;14.50
75822;BMP180;64454;51.984;9.838;2023-03-23T11:06:29;99077.00;;;14.60
75822;BMP180;64454;51.984;9.838;2023-03-23T11:09:02;99061.00;;;14.60
75822;BMP180;64454;51.984;9.838;2023-03-23T11:11:36;99056.00;;;14.60
75822;BMP180;64454;51.984;9.838;2023-03-23T11:14:16;99058.00;;;15.60
75822;BMP180;64454;51.984;9.838;2023-03-23T11:16:50;99058.00;;;16.30
75822;BMP180;64454;51.984;9.838;2023-03-23T11:19:24;99038.00;;;16.30
75822;BMP180;64454;51.984;9.838;2023-03-23T11:21:54;99054.00;;;19.00
75822;BMP180;64454;51.984;9.838;2023-03-23T11:24:23;99041.00;;;19.50
75822;BMP180;64454;51.984;9.838;2023-03-23T11:26:54;99070.00;;;20.10
75822;BMP180;64454;51.984;9.838;2023-03-23T11:29:26;99064.00;;;19.70
75822;BMP180;64454;51.984;9.838;2023-03-23T11:32:04;99066.00;;;20.50
75822;BMP180;64454;51.984;9.838;2023-03-23T11:34:35;99091.00;;;20.20
75822;BMP180;64454;51.984;9.838;2023-03-23T11:37:09;99054.00;;;17.80
75822;BMP180;64454;51.984;9.838;2023-03-23T11:39:48;99069.00;;;20.10
75822;BMP180;64454;51.984;9.838;2023-03-23T11:42:21;99060.00;;;20.50
75822;BMP180;64454;51.984;9.838;2023-03-23T11:44:48;99057.00;;;20.40
75822;BMP180;64454;51.984;9.838;2023-03-23T11:47:24;99066.00;;;20.00
75822;BMP180;64454;51.984;9.838;2023-03-23T11:50:02;99092.00;;;18.60
75822;BMP180;64454;51.984;9.838;2023-03-23T11:52:41;99087.00;;;18.60
75822;BMP180;64454;51.984;9.838;2023-03-23T11:55:17;99092.00;;;17.30
75822;BMP180;64454;51.984;9.838;2023-03-23T11:57:47;99085.00;;;16.40
75822;BMP180;64454;51.984;9.838;2023-03-23T12:00:18;99073.00;;;17.20
75822;BMP180;64454;51.984;9.838;2023-03-23T12:03:29;99079.00;;;17.50
75822;BMP180;64454;51.984;9.838;2023-03-23T12:06:04;99078.00;;;16.50
75822;BMP180;64454;51.984;9.838;2023-03-23T12:08:56;99082.00;;;15.80
75822;BMP180;64454;51.984;9.838;2023-03-23T12:11:36;99060.00;;;17.10
75822;BMP180;64454;51.984;9.838;2023-03-23T12:14:30;99091.00;;;18.00
75822;BMP180;64454;51.984;9.838;2023-03-23T12:17:15;99092.00;;;17.30
75822;BMP180;64454;51.984;9.838;2023-03-23T12:19:56;99093.00;;;16.60
75822;BMP180;64454;51.984;9.838;2023-03-23T12:22:45;99093.00;;;16.00
75822;BMP180;64454;51.984;9.838;2023-03-23T12:25:42;99089.00;;;16.00
75822;BMP180;64454;51.984;9.838;2023-03-23T12:28:34;99091.00;;;16.40
75822;BMP180;64454;51.984;9.838;2023-03-23T12:31:15;99081.00;;;16.60
75822;BMP180;64454;51.984;9.838;2023-03-23T12:33:55;99090.00;;;16.40
75822;BMP180;64454;51.984;9.838;2023-03-23T12:36:41;99090.00;;;16.70
75822;BMP180;64454;51.984;9.838;2023-03-23T12:39:42;99092.00;;;16.20
75822;BMP180;64454;51.984;9.838;2023-03-23T12:42:23;99090.00;;;16.20
75822;BMP180;64454;51.984;9.838;2023-03-23T12:44:58;99094.00;;;16.00
75822;BMP180;64454;51.984;9.838;2023-03-23T12:47:37;99100.00;;;15.90
75822;BMP180;64454;51.984;9.838;2023-03-23T12:50:14;99092.00;;;15.70
75822;BMP180;64454;51.984;9.838;2023-03-23T12:52:56;99103.00;;;15.80
75822;BMP180;64454;51.984;9.838;2023-03-23T12:55:31;99115.00;;;15.80
75822;BMP180;64454;51.984;9.838;2023-03-23T12:58:04;99070.00;;;16.10
75822;BMP180;64454;51.984;9.838;2023-03-23T13:00:53;99088.00;;;17.60
75822;BMP180;64454;51.984;9.838;2023-03-23T13:03:28;99110.00;;;17.30
75822;BMP180;64454;51.984;9.838;2023-03-23T13:06:05;99099.00;;;16.20
75822;BMP180;64454;51.984;9.838;2023-03-23T13:08:39;99115.00;;;15.90
75822;BMP180;64454;51.984;9.838;2023-03-23T13:11:14;99117.00;;;15.70
75822;BMP180;64454;51.984;9.838;2023-03-23T13:13:48;99135.00;;;15.50
75822;BMP180;64454;51.984;9.838;2023-03-23T13:16:29;99148.00;;;15.20
75822;BMP180;64454;51.984;9.838;2023-03-23T13:19:11;99157.00;;;15.00
75822;BMP180;64454;51.984;9.838;2023-03-23T13:21:46;99147.00;;;14.60
75822;BMP180;64454;51.984;9.838;2023-03-23T13:24:21;99147.00;;;14.40
75822;BMP180;64454;51.984;9.838;2023-03-23T13:26:51;99155.00;;;14.40
75822;BMP180;64454;51.984;9.838;2023-03-23T13:29:22;99152.00;;;14.50
75822;BMP180;64454;51.984;9.838;2023-03-23T13:31:51;99161.00;;;14.50
75822;BMP180;64454;51.984;9.838;2023-03-23T13:34:23;99154.00;;;14.60
75822;BMP180;64454;51.984;9.838;2023-03-23T13:36:57;99158.00;;;14.90
75822;BMP180;64454;51.984;9.838;2023-03-23T13:39:31;99145.00;;;15.20
75822;BMP180;64454;51.984;9.838;2023-03-23T13:42:04;99152.00;;;15.30
75822;BMP180;64454;51.984;9.838;2023-03-23T13:44:54;99152.00;;;15.20
75822;BMP180;64454;51.984;9.838;2023-03-23T13:47:28;99153.00;;;15.00
75822;BMP180;64454;51.984;9.838;2023-03-23T13:50:01;99160.00;;;14.80
75822;BMP180;64454;51.984;9.838;2023-03-23T13:52:39;99162.00;;;14.80
75822;BMP180;64454;51.984;9.838;2023-03-23T13:55:30;99162.00;;;15.00
75822;BMP180;64454;51.984;9.838;2023-03-23T13:58:10;99163.00;;;15.00
75822;BMP180;64454;51.984;9.838;2023-03-23T14:00:47;99169.00;;;15.10
75822;BMP180;64454;51.984;9.838;2023-03-23T14:03:23;99173.00;;;15.00
75822;BMP180;64454;51.984;9.838;2023-03-23T14:06:04;99177.00;;;14.40
75822;BMP180;64454;51.984;9.838;2023-03-23T14:08:42;99167.00;;;14.80
75822;BMP180;64454;51.984;9.838;2023-03-23T14:11:17;99156.00;;;14.60
75822;BMP180;64454;51.984;9.838;2023-03-23T14:14:02;99174.00;;;14.40
75822;BMP180;64454;51.984;9.838;2023-03-23T14:16:38;99167.00;;;14.40
75822;BMP180;64454;51.984;9.838;2023-03-23T14:19:19;99181.00;;;14.20
75822;BMP180;64454;51.984;9.838;2023-03-23T14:21:55;99172.00;;;14.10
75822;BMP180;64454;51.984;9.838;2023-03-23T14:24:24;99173.00;;;14.20
75822;BMP180;64454;51.984;9.838;2023-03-23T14:27:02;99169.00;;;13.80
75822;BMP180;64454;51.984;9.838;2023-03-23T14:29:29;99171.00;;;13.50
75822;BMP180;64454;51.984;9.838;2023-03-23T14:31:58;99176.00;;;13.30
75822;BMP180;64454;51.984;9.838;2023-03-23T14:34:28;99182.00;;;13.40
75822;BMP180;64454;51.984;9.838;2023-03-23T14:36:58;99183.00;;;13.60